• Join FlightAware (Why Join?)
  • Login
  • US Flag 
12:13PM EDT


 

Airport Tracker/Info


-or-


 

Live Flight TrackerFlight Track Log ✈ ASQ4179 ✈ 11-May-2013 ✈ KEWR - KBOS

Flight Track Log - Related Links

Times and Time Zones

All times are in EDT time to prevent confusion due to time zone crossing. See the ASQ4179 flight status page for this flight to view local times or setup timezone preferences in your user account.

Time Position Orientation Groundspeed Altitude Reporting Facility
EDT Latitude Longitude Course Direction KTS MPH feet Rate Location/Type
06:40AM 40.6333 -74.1833 51° Northeast 185 213 2,400  Level New York TRACON
06:41AM 40.6500 -74.2333 294° West 242 278 4,300 2,220 Climbing New York TRACON
06:42AM 40.8667 -73.8999 90° East  Level FlightAware Approximate
06:43AM 40.9076 -73.8327 47° Northeast  Level FlightAware Approximate
06:43AM 40.7631 -74.0678 48° Northeast 265 305 9,500  Level Boston Center
06:44AM 40.9549 -73.7665 47° Northeast  Level FlightAware Approximate
06:44AM 40.8167 -73.9650 55° Northeast 299 344 10,800  Level Boston Center
06:45AM 41.0103 -73.6774 51° Northeast  Level FlightAware Approximate
06:45AM 40.8867 -73.8678 46° Northeast 335 386 11,800  Level Boston Center
06:46AM 40.9608 -73.7622 47° Northeast 367 422 13,300 1,500 Climbing Boston Center
06:47AM 41.0331 -73.6564 48° Northeast 384 442 14,800 1,560 Climbing Boston Center
06:48AM 41.0842 -73.5278 62° Northeast 384 442 16,500 1,440 Climbing Boston Center
06:49AM 41.1272 -73.3936 67° East 384 442 17,700 1,200 Climbing Boston Center
06:50AM 41.1719 -73.2564 67° East 401 461 18,900 600 Climbing Boston Center
06:51AM 41.2189 -73.1050 68° East 414 476 19,000  Climbing Boston Center
06:52AM 41.2697 -72.9483 67° East 436 502 19,000  Level Boston Center
06:53AM 41.3225 -72.7661 69° East 445 512 19,000  Level Boston Center
06:54AM 41.3708 -72.6117 67° East 445 512 19,000  Level Boston Center
06:55AM 41.4189 -72.4567 67° East 451 519 19,000  Level Boston Center
06:56AM 41.4686 -72.3017 67° East 446 513 19,000  Level Boston Center
06:57AM 41.5206 -72.1489 66° East 446 513 19,000  Level Boston Center
06:58AM 41.5722 -71.9906 66° East 453 521 19,000  Level Boston Center
06:59AM 41.6214 -71.8458 66° East 458 527 19,000 -480 Level Boston Center
07:00AM 41.6747 -71.6758 67° East 448 516 18,100 -1,140 Descending Boston Center
07:01AM 41.7236 -71.5306 66° East 448 516 16,800 -1,620 Descending Boston Center
07:02AM 41.7764 -71.3656 67° East 448 516 14,900 -2,100 Descending Boston Center
07:03AM 41.8189 -71.2339 67° East 432 497 12,700 -1,980 Descending Boston Center
07:04AM 41.8692 -71.0908 65° Northeast 399 459 11,000 -1,380 Descending Boston Center
07:05AM 41.9139 -70.9894 59° Northeast 361 415 10,000 -1,200 Descending Boston Center
07:06AM 41.9622 -70.8739 61° Northeast 335 386 8,600 -1,080 Descending Boston Center
07:07AM 42.0069 -70.7806 57° Northeast 322 371 7,900 -360 Descending Boston Center
07:08AM 42.0658 -70.6894 49° Northeast 322 371 7,900 -240 Level Boston Center
07:09AM 42.1333 -70.6000 44° Northeast 323 372 7,500 -900 Descending KA90
07:10AM 42.2167 -70.6000 360° North 294 338 6,200 -1,440 Descending KA90
07:11AM 42.3000 -70.6000 360° North 282 325 4,600 -1,140 Descending KA90
07:12AM 42.3775 -70.6217 348° North 274 315 3,900 -360 Descending Boston Center
07:13AM 42.4367 -70.6733 327° Northwest 262 302 3,900  Level Boston Center
07:14AM 42.4939 -70.7281 325° Northwest 251 289 3,900 -240 Level Boston Center
07:15AM 42.5344 -70.8003 307° West 244 281 3,500 -480 Descending Boston Center
07:16AM 42.5167 -70.9000 256° West 212 244 2,900 -720 Descending KA90
07:17AM 42.4833 -70.9500 228° Southwest 184 212 2,000 -900 Descending KA90